This is the latest recevied weather packets stored in our database for station/object OE5HMR-13. If no packets are shown the sender has not sent any weather packets the latest 10 day(s).
| Time | Temp. | Humidity | Pressure | Rain* | Wind** | Luminosity | Snow |
|---|---|---|---|---|---|---|---|
| 1777712128 | 18.33° C | 38% | 1023.2 hPa | 0 mm | - | - | - |
| 1777704336 | 12.78° C | 60% | 1023.2 hPa | 0 mm | - | - | - |
| 1777703125 | 9.44° C | 72% | 1023.2 hPa | 0 mm | - | - | - |
| 1777698333 | 4.44° C | 71% | 1023.2 hPa | 0 mm | - | - | - |
| 1777697129 | 3.89° C | 70% | 1022.2 hPa | 0 mm | - | - | - |
| 1777693534 | 2.78° C | 70% | 1022.2 hPa | 0 mm | - | - | - |
| 1777691727 | 2.78° C | 68% | 1022.2 hPa | 0 mm | - | - | - |
| 1777691130 | 2.78° C | 69% | 1023.2 hPa | 0 mm | - | - | - |
| 1777690527 | 2.78° C | 68% | 1023.2 hPa | 0 mm | - | - | - |
| 1777686928 | 2.22° C | 69% | 1023.2 hPa | 0 mm | - | - | - |
| 1777685764 | 2.22° C | 67% | 1023.2 hPa | 0 mm | - | - | - |
| 1777680338 | 3.89° C | 64% | 1024.3 hPa | 0 mm | - | - | - |
| 1777674333 | 3.33° C | 61% | 1023.2 hPa | - | - | - | - |
| 1777664729 | 6.67° C | 54% | 1024.3 hPa | - | - | - | - |
| 1777663527 | 7.78° C | 52% | 1024.3 hPa | - | - | - | - |
| 1777661129 | 10.56° C | 42% | 1025.3 hPa | 0 mm | - | - | - |
| 1777659332 | 12.78° C | 39% | 1024.5 hPa | 0 mm | - | - | - |
| 1777658147 | 13.89° C | 39% | 1024.3 hPa | 0 mm | - | - | - |
| 1777653936 | 15.56° C | 36% | 1025.4 hPa | 0 mm | - | - | - |
| 1777652724 | 15.56° C | 36% | 1025.4 hPa | 0 mm | - | - | - |
| 1777650930 | 16.11° C | 36% | 1025.4 hPa | 0 mm | - | - | - |
| 1777650325 | 16.11° C | 36% | 1025.4 hPa | 0 mm | - | - | - |
| 1777644924 | 16.67° C | 35% | 1025.4 hPa | 0 mm | - | - | - |
| 1777644333 | 16.67° C | 36% | 1025.4 hPa | 0 mm | - | - | - |
| 1777633530 | 15.56° C | 38% | 1025.4 hPa | 0 mm | - | - | - |
* Rain latest hour (hover to see other rain measurements)
** Current wind speed in m/s (hover to see current wind gust speed)